Blue Ridge, Canada
Current Conditions -  °F | °C
As of 2:00 PM on Friday 24 Oct 2014 (Local Time) from CYZU Reporting Station
Few Clouds Few Clouds  
Wind Chill: 50°   Ceiling: Unl
Heat Index: 50°   Visibility: 15mi
Dew Point: 23°   Wind: 13mph
Humidity: 35%   Direction: 280°W
Pressure: 29.84"   Gusts: NA
Location:  54.12°N, 115.38°W
Report Text: CYZU 242000Z 28011KT 15SM FEW022 10/M05 A2984 RMK CU1 CU TR SLP128 DENSITY ALT 2600FT
Loading
Personal Weather Stations






























Interactive Weather Map
Tropical Storm Tracking
New forecast layout! Learn more

10-Day Weather Forecast

Advertisements
Track Severe Weather on mobile